Time;durP1;ratioP1;P1;durP2;ratioP2;P2;SDS_P1;SDS_P2;PMS_P1;PMS_P2;Temp;Humidity;BMP_temperature;BMP_pressure;BME280_temperature;BME280_humidity;BME280_pressure;Samples;Min_cycle;Max_cycle;Signal;HPM_P1;HPM_P2
2023/03/06 00:01:16;;;;;;;2.05;0.63;;;;;;;;;;4996939;28;20045;-67
2023/03/06 00:03:54;;;;;;;5.32;1.00;;;;;;;;;;5030008;28;20490;-67
2023/03/06 00:06:27;;;;;;;5.72;1.02;;;;;;;;;;4978536;28;20216;-67
2023/03/06 00:08:59;;;;;;;4.93;1.08;;;;;;;;;;5025638;28;20057;-67
2023/03/06 00:11:34;;;;;;;6.00;0.90;;;;;;;;;;5028625;28;20057;-67
2023/03/06 00:14:07;;;;;;;1.42;0.55;;;;;;;;;;5027295;28;20060;-67
2023/03/06 00:16:38;;;;;;;3.10;0.98;;;;;;;;;;5028493;28;20072;-67
2023/03/06 00:19:09;;;;;;;8.05;0.80;;;;;;;;;;5048891;28;20060;-67
2023/03/06 00:21:44;;;;;;;5.47;0.80;;;;;;;;;;5049407;28;20459;-67
2023/03/06 00:24:15;;;;;;;5.07;0.60;;;;;;;;;;5015705;28;20061;-67
2023/03/06 00:26:51;;;;;;;5.20;0.82;;;;;;;;;;5049434;28;20052;-69
2023/03/06 00:29:23;;;;;;;4.47;0.70;;;;;;;;;;5012147;28;20068;-67
2023/03/06 00:31:56;;;;;;;4.00;0.70;;;;;;;;;;5028639;28;20060;-66
2023/03/06 00:34:27;;;;;;;2.70;0.70;;;;;;;;;;5045040;28;20448;-67
2023/03/06 00:36:58;;;;;;;2.00;0.73;;;;;;;;;;5024686;28;20064;-68
2023/03/06 00:39:29;;;;;;;4.35;0.73;;;;;;;;;;5026655;28;20079;-67
2023/03/06 00:42:01;;;;;;;0.77;0.50;;;;;;;;;;5029197;28;20069;-67
2023/03/06 00:44:37;;;;;;;3.70;0.60;;;;;;;;;;5028951;28;20065;-67
2023/03/06 00:47:08;;;;;;;3.80;0.77;;;;;;;;;;5028425;28;20092;-67
2023/03/06 00:49:42;;;;;;;1.50;0.73;;;;;;;;;;5024194;28;20143;-67
2023/03/06 00:52:13;;;;;;;5.47;0.73;;;;;;;;;;5024461;28;20061;-67
2023/03/06 00:54:43;;;;;;;7.22;0.98;;;;;;;;;;4990918;28;20068;-67
2023/03/06 00:57:17;;;;;;;2.70;0.60;;;;;;;;;;5010659;28;20050;-67
2023/03/06 00:59:47;;;;;;;5.18;0.60;;;;;;;;;;5004240;28;20062;-67
2023/03/06 01:02:22;;;;;;;3.17;0.70;;;;;;;;;;4987772;28;20414;-68
2023/03/06 01:04:54;;;;;;;3.08;0.93;;;;;;;;;;4988724;28;20134;-67
2023/03/06 01:07:26;;;;;;;1.13;0.60;;;;;;;;;;4992058;28;20061;-66
2023/03/06 01:09:58;;;;;;;0.70;0.43;;;;;;;;;;4959280;28;20054;-67
2023/03/06 01:12:29;;;;;;;4.78;0.82;;;;;;;;;;4965852;28;20061;-67
2023/03/06 01:14:59;;;;;;;3.65;1.00;;;;;;;;;;4937163;29;20063;-67
2023/03/06 01:17:29;;;;;;;6.72;1.08;;;;;;;;;;4946047;28;20054;-67
2023/03/06 01:19:58;;;;;;;3.47;0.70;;;;;;;;;;4965127;28;20055;-66
2023/03/06 01:22:29;;;;;;;3.45;0.82;;;;;;;;;;4962392;28;20077;-67
2023/03/06 01:24:59;;;;;;;5.20;0.93;;;;;;;;;;4949411;28;20055;-67
2023/03/06 01:27:29;;;;;;;5.57;0.82;;;;;;;;;;4918673;28;20059;-67
2023/03/06 01:29:59;;;;;;;4.75;0.90;;;;;;;;;;4902013;28;20252;-67
2023/03/06 01:32:30;;;;;;;8.55;0.93;;;;;;;;;;4949032;28;20055;-68
2023/03/06 01:35:02;;;;;;;1.98;0.85;;;;;;;;;;4956251;28;20055;-68
2023/03/06 01:37:34;;;;;;;;;;;;;;;;;;4926633;29;20530;-68
2023/03/06 01:40:07;;;;;;;5.47;0.95;;;;;;;;;;4888066;29;19927;-68
2023/03/06 01:42:37;;;;;;;1.65;1.00;;;;;;;;;;4888855;29;20212;-68
2023/03/06 01:45:13;;;;;;;3.70;0.90;;;;;;;;;;4865644;29;20057;-67
2023/03/06 01:47:44;;;;;;;3.53;1.38;;;;;;;;;;4858895;29;20064;-67
2023/03/06 01:50:14;;;;;;;4.28;1.17;;;;;;;;;;4883210;29;20067;-67
2023/03/06 01:52:46;;;;;;;2.03;0.82;;;;;;;;;;4892619;29;20064;-67
2023/03/06 01:55:23;;;;;;;2.38;0.75;;;;;;;;;;4890257;29;20064;-66
2023/03/06 01:57:57;;;;;;;2.33;0.73;;;;;;;;;;4930449;29;20051;-67
2023/03/06 02:00:28;;;;;;;2.83;1.13;;;;;;;;;;4913434;28;20066;-67
2023/03/06 02:03:12;;;;;;;8.73;1.00;;;;;;;;;;4945578;28;20062;-67
2023/03/06 02:05:43;;;;;;;3.47;1.00;;;;;;;;;;4945963;28;20636;-67
2023/03/06 02:08:17;;;;;;;2.30;0.82;;;;;;;;;;4872425;29;20143;-67
2023/03/06 02:10:57;;;;;;;9.57;1.17;;;;;;;;;;4858225;29;20056;-67
2023/03/06 02:13:29;;;;;;;4.47;1.02;;;;;;;;;;4855332;29;20060;-67
2023/03/06 02:15:59;;;;;;;3.88;1.13;;;;;;;;;;4842416;29;20058;-67
2023/03/06 02:18:29;;;;;;;2.65;1.08;;;;;;;;;;4853676;29;20105;-67
2023/03/06 02:21:03;;;;;;;7.10;1.33;;;;;;;;;;4862111;29;20059;-68
2023/03/06 02:24:00;;;;;;;2.20;1.17;;;;;;;;;;4858396;29;20065;-67
2023/03/06 02:26:33;;;;;;;3.85;1.40;;;;;;;;;;4823524;29;20092;-67
2023/03/06 02:29:03;;;;;;;5.20;1.20;;;;;;;;;;4860126;29;20054;-67
2023/03/06 02:31:34;;;;;;;4.35;1.55;;;;;;;;;;4880034;29;20064;-67
2023/03/06 02:34:16;;;;;;;7.13;1.55;;;;;;;;;;4879775;29;20097;-67
2023/03/06 02:36:52;;;;;;;3.35;1.23;;;;;;;;;;4897945;29;20065;-67
2023/03/06 02:39:27;;;;;;;7.70;1.58;;;;;;;;;;4901091;29;20062;-67
2023/03/06 02:41:57;;;;;;;3.40;1.33;;;;;;;;;;4932331;29;20100;-67
2023/03/06 02:44:31;;;;;;;4.20;1.80;;;;;;;;;;4931787;29;20700;-67
2023/03/06 02:47:01;;;;;;;8.35;1.70;;;;;;;;;;4900803;29;20078;-67
2023/03/06 02:49:31;;;;;;;6.00;1.55;;;;;;;;;;4899726;29;20428;-67
2023/03/06 02:52:01;;;;;;;5.80;1.90;;;;;;;;;;4952917;28;20065;-67
2023/03/06 02:54:31;;;;;;;4.32;1.75;;;;;;;;;;4990657;28;20758;-67
2023/03/06 02:57:01;;;;;;;3.53;1.30;;;;;;;;;;4975208;28;20061;-67
2023/03/06 02:59:32;;;;;;;12.50;1.58;;;;;;;;;;4973306;28;20047;-67
2023/03/06 03:02:04;;;;;;;4.95;1.50;;;;;;;;;;4943445;29;20052;-67
2023/03/06 03:04:34;;;;;;;4.78;1.35;;;;;;;;;;4913493;29;20075;-67
2023/03/06 03:07:04;;;;;;;5.10;1.30;;;;;;;;;;4873478;29;20060;-67
2023/03/06 03:09:36;;;;;;;3.05;1.27;;;;;;;;;;4896822;29;20060;-67
2023/03/06 03:12:07;;;;;;;3.45;1.33;;;;;;;;;;4894669;29;20060;-67
2023/03/06 03:14:37;;;;;;;3.13;1.52;;;;;;;;;;4916514;29;20413;-67
2023/03/06 03:17:07;;;;;;;4.15;1.38;;;;;;;;;;4917016;29;20055;-68
2023/03/06 03:19:38;;;;;;;3.95;1.33;;;;;;;;;;4876452;29;20056;-67
2023/03/06 03:22:08;;;;;;;6.00;1.38;;;;;;;;;;4878251;29;20068;-68
2023/03/06 03:24:38;;;;;;;4.75;1.33;;;;;;;;;;4861118;29;20468;-67
2023/03/06 03:27:09;;;;;;;6.20;1.60;;;;;;;;;;4892177;29;20626;-67
2023/03/06 03:29:40;;;;;;;3.30;1.20;;;;;;;;;;4871888;29;20578;-67
2023/03/06 03:32:10;;;;;;;6.60;1.38;;;;;;;;;;4881898;29;20064;-67
2023/03/06 03:34:42;;;;;;;8.63;1.35;;;;;;;;;;4857700;29;20059;-67
2023/03/06 03:37:12;;;;;;;3.83;1.30;;;;;;;;;;4866647;29;20782;-67
2023/03/06 03:39:43;;;;;;;4.43;1.35;;;;;;;;;;4833578;29;20591;-67
2023/03/06 03:42:13;;;;;;;6.07;1.45;;;;;;;;;;4891132;29;20060;-67
2023/03/06 03:44:43;;;;;;;4.40;1.40;;;;;;;;;;4872029;29;20053;-67
2023/03/06 03:47:13;;;;;;;7.93;1.15;;;;;;;;;;4855197;29;20062;-67
2023/03/06 03:49:43;;;;;;;4.72;1.17;;;;;;;;;;4863153;29;20072;-67
2023/03/06 03:52:12;;;;;;;8.82;1.40;;;;;;;;;;4871320;29;20053;-67
2023/03/06 03:54:42;;;;;;;6.93;1.48;;;;;;;;;;4883315;29;20060;-67
2023/03/06 03:57:12;;;;;;;5.45;2.05;;;;;;;;;;4870292;29;20060;-67
2023/03/06 03:59:47;;;;;;;4.75;1.15;;;;;;;;;;4845865;29;20053;-67
2023/03/06 04:02:29;;;;;;;8.25;1.35;;;;;;;;;;4854682;29;20053;-66
2023/03/06 04:05:11;;;;;;;2.40;1.05;;;;;;;;;;4855243;29;20061;-68
2023/03/06 04:07:42;;;;;;;5.35;1.23;;;;;;;;;;4862986;29;20056;-67
2023/03/06 04:10:12;;;;;;;2.75;1.40;;;;;;;;;;4837316;29;20092;-67
2023/03/06 04:12:43;;;;;;;2.90;1.23;;;;;;;;;;4807148;29;20066;-67
2023/03/06 04:15:13;;;;;;;7.25;1.63;;;;;;;;;;4816107;29;20058;-67
2023/03/06 04:17:46;;;;;;;2.85;1.10;;;;;;;;;;4826139;29;20084;-67
2023/03/06 04:20:20;;;;;;;2.50;1.27;;;;;;;;;;4807755;29;20058;-67
2023/03/06 04:22:50;;;;;;;6.10;1.70;;;;;;;;;;4826158;29;20054;-67
2023/03/06 04:25:20;;;;;;;5.72;1.30;;;;;;;;;;4837774;29;20069;-67
2023/03/06 04:27:50;;;;;;;5.22;1.20;;;;;;;;;;4819449;29;20054;-67
2023/03/06 04:30:20;;;;;;;4.75;1.42;;;;;;;;;;4840142;29;20066;-67
2023/03/06 04:32:50;;;;;;;4.63;1.10;;;;;;;;;;4848839;29;20068;-67
2023/03/06 04:35:20;;;;;;;2.80;1.27;;;;;;;;;;4815440;29;20069;-67
2023/03/06 04:37:57;;;;;;;5.15;1.33;;;;;;;;;;4817907;29;20069;-67
2023/03/06 04:40:33;;;;;;;3.70;1.40;;;;;;;;;;4822429;29;20058;-67
2023/03/06 04:43:04;;;;;;;8.40;1.23;;;;;;;;;;4840097;29;20077;-67
2023/03/06 04:45:34;;;;;;;2.83;1.13;;;;;;;;;;4846692;29;20124;-67
2023/03/06 04:48:04;;;;;;;4.80;1.83;;;;;;;;;;4847612;29;20532;-67
2023/03/06 04:50:36;;;;;;;5.70;1.40;;;;;;;;;;4850680;29;20546;-67
2023/03/06 04:53:07;;;;;;;;;;;;;;;;;;4844835;29;20072;-67
2023/03/06 04:55:37;;;;;;;3.25;1.40;;;;;;;;;;4852650;29;19928;-67
2023/03/06 04:58:07;;;;;;;5.15;1.10;;;;;;;;;;4852291;29;20073;-67
2023/03/06 05:00:36;;;;;;;4.50;1.50;;;;;;;;;;4854351;29;20061;-67
2023/03/06 05:03:08;;;;;;;5.88;1.75;;;;;;;;;;4857417;29;20053;-67
2023/03/06 05:05:37;;;;;;;2.45;1.13;;;;;;;;;;4856289;29;20070;-67
2023/03/06 05:08:11;;;;;;;6.45;1.40;;;;;;;;;;4840195;29;20453;-67
2023/03/06 05:10:42;;;;;;;4.15;1.08;;;;;;;;;;4909631;29;20129;-67
2023/03/06 05:13:12;;;;;;;5.50;1.55;;;;;;;;;;4882997;29;20063;-66
2023/03/06 05:15:42;;;;;;;6.68;1.30;;;;;;;;;;4975783;28;20058;-66
2023/03/06 05:18:12;;;;;;;7.38;1.40;;;;;;;;;;4999488;28;20513;-67
2023/03/06 05:20:42;;;;;;;4.28;0.90;;;;;;;;;;5043976;28;20069;-67
2023/03/06 05:23:11;;;;;;;3.42;1.45;;;;;;;;;;5048167;28;20052;-66
2023/03/06 05:25:42;;;;;;;4.53;1.13;;;;;;;;;;5047919;28;20404;-66
2023/03/06 05:28:11;;;;;;;3.88;1.40;;;;;;;;;;5048345;28;20056;-67
2023/03/06 05:30:41;;;;;;;3.88;1.40;;;;;;;;;;5048652;28;20045;-67
2023/03/06 05:33:13;;;;;;;2.90;1.02;;;;;;;;;;5044656;28;20512;-67
2023/03/06 05:35:46;;;;;;;4.50;1.15;;;;;;;;;;4994229;28;20068;-68
2023/03/06 05:38:18;;;;;;;4.13;1.23;;;;;;;;;;5041926;28;20522;-67
2023/03/06 05:40:47;;;;;;;6.05;1.55;;;;;;;;;;5043900;28;20065;-67
2023/03/06 05:43:17;;;;;;;3.35;1.17;;;;;;;;;;5027951;28;20517;-67
2023/03/06 05:45:49;;;;;;;2.22;1.10;;;;;;;;;;5048233;28;20052;-67
2023/03/06 05:48:19;;;;;;;5.68;1.30;;;;;;;;;;5048069;28;20053;-67
2023/03/06 05:50:55;;;;;;;7.05;1.30;;;;;;;;;;4981438;28;20064;-67
2023/03/06 05:53:25;;;;;;;5.60;1.75;;;;;;;;;;5027309;28;20573;-67
2023/03/06 05:55:57;;;;;;;2.28;1.15;;;;;;;;;;5004589;28;20054;-67
2023/03/06 05:58:30;;;;;;;6.00;2.10;;;;;;;;;;4972150;28;20061;-67
2023/03/06 06:01:06;;;;;;;3.65;1.23;;;;;;;;;;5007257;28;20496;-67
2023/03/06 06:03:37;;;;;;;8.85;1.20;;;;;;;;;;4988273;28;20154;-67
2023/03/06 06:06:09;;;;;;;5.07;1.33;;;;;;;;;;5009350;28;20038;-67
2023/03/06 06:08:39;;;;;;;;;;;;;;;;;;5010800;28;20057;-67
2023/03/06 06:11:11;;;;;;;3.15;1.20;;;;;;;;;;5010369;28;19921;-67
2023/03/06 06:13:41;;;;;;;4.03;1.38;;;;;;;;;;5010459;28;20041;-67
2023/03/06 06:16:17;;;;;;;4.78;1.23;;;;;;;;;;5008190;28;20054;-67
2023/03/06 06:18:47;;;;;;;4.60;0.85;;;;;;;;;;5006616;28;20548;-67
2023/03/06 06:21:17;;;;;;;5.32;1.40;;;;;;;;;;4971755;28;20065;-67
2023/03/06 06:23:47;;;;;;;2.35;1.15;;;;;;;;;;5003752;28;20406;-67
2023/03/06 06:26:17;;;;;;;2.28;1.10;;;;;;;;;;5006182;28;20069;-67
2023/03/06 06:28:47;;;;;;;6.05;1.40;;;;;;;;;;5010181;28;20048;-66
2023/03/06 06:31:16;;;;;;;4.72;1.35;;;;;;;;;;5010576;28;20057;-67
2023/03/06 06:33:46;;;;;;;4.15;1.40;;;;;;;;;;4991694;28;20438;-67
2023/03/06 06:36:18;;;;;;;6.10;1.33;;;;;;;;;;4991732;28;20065;-67
2023/03/06 06:38:49;;;;;;;2.55;1.55;;;;;;;;;;4987428;28;20050;-67
2023/03/06 06:41:19;;;;;;;5.35;1.33;;;;;;;;;;5006501;28;20042;-67
2023/03/06 06:44:13;;;;;;;5.45;1.38;;;;;;;;;;5006650;28;20053;-67
2023/03/06 06:46:44;;;;;;;3.33;1.23;;;;;;;;;;5006680;28;20054;-67
2023/03/06 06:49:34;;;;;;;7.18;1.58;;;;;;;;;;5008841;28;20512;-67
2023/03/06 06:52:05;;;;;;;5.85;1.35;;;;;;;;;;5057663;28;20053;-67
2023/03/06 06:54:35;;;;;;;5.20;1.33;;;;;;;;;;5041096;28;20502;-67
2023/03/06 06:57:04;;;;;;;3.88;1.05;;;;;;;;;;5009982;28;20061;-67
2023/03/06 06:59:34;;;;;;;5.15;1.30;;;;;;;;;;5024318;28;20454;-67
2023/03/06 07:02:06;;;;;;;5.32;1.33;;;;;;;;;;5007455;28;20069;-67
2023/03/06 07:04:35;;;;;;;3.67;1.17;;;;;;;;;;5026826;28;20609;-67
2023/03/06 07:07:07;;;;;;;2.58;1.10;;;;;;;;;;5010880;28;20049;-67
2023/03/06 07:09:40;;;;;;;4.38;1.30;;;;;;;;;;5026512;28;20068;-67
2023/03/06 07:12:10;;;;;;;3.20;1.40;;;;;;;;;;4997453;28;20057;-67
2023/03/06 07:14:41;;;;;;;8.65;1.05;;;;;;;;;;4998022;28;20208;-66
2023/03/06 07:17:10;;;;;;;4.82;1.25;;;;;;;;;;5030696;28;20556;-67
2023/03/06 07:19:40;;;;;;;5.22;1.20;;;;;;;;;;4997713;28;20576;-67
2023/03/06 07:22:10;;;;;;;9.95;1.10;;;;;;;;;;5026814;28;20056;-67
2023/03/06 07:24:40;;;;;;;3.13;1.15;;;;;;;;;;5026070;28;20088;-67
2023/03/06 07:27:09;;;;;;;5.32;1.02;;;;;;;;;;5026197;28;20425;-67
2023/03/06 07:29:42;;;;;;;3.80;1.00;;;;;;;;;;4992921;28;20076;-66
2023/03/06 07:32:13;;;;;;;4.93;1.30;;;;;;;;;;5010970;28;20038;-67
2023/03/06 07:34:44;;;;;;;2.45;1.25;;;;;;;;;;5012933;28;20053;-67
2023/03/06 07:37:14;;;;;;;3.00;1.30;;;;;;;;;;5043032;28;20065;-67
2023/03/06 07:39:43;;;;;;;4.10;1.45;;;;;;;;;;5013521;28;20470;-67
2023/03/06 07:42:14;;;;;;;4.35;1.23;;;;;;;;;;4976772;28;20104;-67
2023/03/06 07:44:55;;;;;;;5.35;1.52;;;;;;;;;;5086200;28;20093;-67
2023/03/06 07:47:24;;;;;;;6.95;1.50;;;;;;;;;;5085562;28;20051;-67
2023/03/06 07:49:55;;;;;;;4.00;1.33;;;;;;;;;;5019165;28;20106;-67
2023/03/06 07:52:25;;;;;;;3.97;1.33;;;;;;;;;;5036075;28;20547;-67
2023/03/06 07:54:55;;;;;;;3.13;1.42;;;;;;;;;;5039077;28;20056;-66
2023/03/06 07:57:25;;;;;;;7.63;1.50;;;;;;;;;;5089967;28;20063;-67
2023/03/06 07:59:55;;;;;;;10.30;1.67;;;;;;;;;;5090296;28;20059;-66
2023/03/06 08:02:25;;;;;;;8.63;1.58;;;;;;;;;;5089803;28;20059;-67
2023/03/06 08:04:55;;;;;;;6.03;1.58;;;;;;;;;;5087619;28;20055;-66
2023/03/06 08:07:25;;;;;;;7.25;1.52;;;;;;;;;;5085820;28;20534;-66
2023/03/06 08:09:56;;;;;;;4.50;1.55;;;;;;;;;;5085352;28;20056;-67
2023/03/06 08:12:26;;;;;;;5.13;1.30;;;;;;;;;;5085795;28;20059;-66
2023/03/06 08:14:56;;;;;;;4.25;1.38;;;;;;;;;;5085588;28;20055;-67
2023/03/06 08:17:25;;;;;;;3.90;1.25;;;;;;;;;;5089458;28;20044;-66
2023/03/06 08:19:55;;;;;;;4.57;1.52;;;;;;;;;;5039879;28;20052;-67
2023/03/06 08:22:25;;;;;;;5.93;1.17;;;;;;;;;;5011064;28;20054;-67
2023/03/06 08:24:55;;;;;;;6.22;1.40;;;;;;;;;;4976699;28;20062;-67
2023/03/06 08:27:25;;;;;;;4.00;1.50;;;;;;;;;;5056185;28;20057;-67
2023/03/06 08:29:55;;;;;;;5.72;1.92;;;;;;;;;;5008948;28;20455;-66
2023/03/06 08:32:25;;;;;;;6.68;1.55;;;;;;;;;;5008391;28;20060;-67
2023/03/06 08:34:55;;;;;;;5.00;1.55;;;;;;;;;;5008655;28;20046;-66
2023/03/06 08:37:25;;;;;;;5.38;1.70;;;;;;;;;;5007260;28;20057;-66
2023/03/06 08:39:55;;;;;;;9.18;1.45;;;;;;;;;;5008923;28;20053;-66
2023/03/06 08:42:25;;;;;;;4.03;1.73;;;;;;;;;;4993725;28;20054;-66
2023/03/06 08:44:55;;;;;;;3.78;1.55;;;;;;;;;;5012270;28;20047;-66
2023/03/06 08:47:25;;;;;;;3.95;1.50;;;;;;;;;;5010731;28;20046;-66
2023/03/06 08:49:55;;;;;;;5.32;1.13;;;;;;;;;;5008000;28;20046;-66
2023/03/06 08:52:28;;;;;;;7.47;2.75;;;;;;;;;;5008081;28;20056;-66
2023/03/06 08:55:02;;;;;;;4.75;1.17;;;;;;;;;;5007638;28;20054;-66
2023/03/06 08:57:32;;;;;;;5.38;1.80;;;;;;;;;;5007992;28;20664;-66
2023/03/06 09:00:05;;;;;;;3.38;1.40;;;;;;;;;;5010492;28;20493;-66
2023/03/06 09:02:36;;;;;;;3.45;1.40;;;;;;;;;;4977403;28;20540;-66
2023/03/06 09:05:07;;;;;;;3.22;1.30;;;;;;;;;;5059186;28;20046;-66
2023/03/06 09:07:37;;;;;;;7.05;2.15;;;;;;;;;;4955312;28;20538;-66
2023/03/06 09:10:12;;;;;;;6.18;1.33;;;;;;;;;;4985746;28;20799;-66
2023/03/06 09:12:42;;;;;;;3.05;1.50;;;;;;;;;;4985186;28;20054;-67
2023/03/06 09:15:21;;;;;;;4.63;1.88;;;;;;;;;;4985239;28;20069;-66
2023/03/06 09:17:52;;;;;;;9.75;1.30;;;;;;;;;;4984954;28;20054;-66
2023/03/06 09:20:22;;;;;;;4.75;1.20;;;;;;;;;;4985737;28;20065;-65
2023/03/06 09:22:52;;;;;;;3.97;1.42;;;;;;;;;;4972937;28;20573;-65
2023/03/06 09:25:22;;;;;;;3.03;1.50;;;;;;;;;;4987357;28;20050;-65
2023/03/06 09:27:52;;;;;;;5.05;1.45;;;;;;;;;;4988918;28;20054;-65
2023/03/06 09:30:40;;;;;;;7.07;1.52;;;;;;;;;;4955545;28;20403;-65
2023/03/06 09:33:10;;;;;;;11.02;1.42;;;;;;;;;;4984523;28;20434;-65
2023/03/06 09:35:57;;;;;;;4.93;1.58;;;;;;;;;;4984966;28;20069;-65
2023/03/06 09:38:27;;;;;;;4.70;1.70;;;;;;;;;;4983881;28;20069;-66
2023/03/06 09:40:57;;;;;;;5.05;1.98;;;;;;;;;;4936532;28;20073;-65
2023/03/06 09:43:43;;;;;;;6.22;2.55;;;;;;;;;;4987724;28;20513;-66
2023/03/06 09:46:24;;;;;;;4.45;1.45;;;;;;;;;;5008621;28;20064;-65
2023/03/06 09:49:11;;;;;;;4.95;1.52;;;;;;;;;;4992227;28;20045;-65
2023/03/06 09:51:56;;;;;;;8.35;1.60;;;;;;;;;;5011025;28;20497;-65
2023/03/06 09:54:43;;;;;;;3.75;1.80;;;;;;;;;;5004494;28;20057;-66
2023/03/06 09:57:26;;;;;;;10.40;1.73;;;;;;;;;;5006818;28;20042;-65
2023/03/06 10:00:11;;;;;;;7.72;1.55;;;;;;;;;;5004803;28;20064;-66
2023/03/06 10:03:18;;;;;;;8.77;2.00;;;;;;;;;;5006559;28;20054;-66
2023/03/06 10:06:17;;;;;;;5.20;1.42;;;;;;;;;;4991421;28;20054;-65
2023/03/06 10:09:21;;;;;;;9.15;1.98;;;;;;;;;;4891831;29;20544;-65
2023/03/06 10:11:53;;;;;;;;;;;;;;;;;;4893017;29;20576;-65
2023/03/06 10:14:32;;;;;;;9.32;1.85;;;;;;;;;;4891346;29;20788;-65
2023/03/06 10:17:02;;;;;;;6.20;1.50;;;;;;;;;;4888610;29;20116;-65
2023/03/06 10:19:35;;;;;;;5.25;1.52;;;;;;;;;;4888385;29;20432;-65
2023/03/06 10:22:23;;;;;;;;;;;;;;;;;;4889068;29;20532;-66
2023/03/06 10:25:08;;;;;;;5.22;1.42;;;;;;;;;;4888210;29;20663;-65
2023/03/06 10:28:36;;;;;;;5.00;2.03;;;;;;;;;;4860995;29;20083;-66
2023/03/06 10:31:24;;;;;;;4.63;1.80;;;;;;;;;;4836478;29;20558;-66
2023/03/06 10:33:55;;;;;;;3.03;1.52;;;;;;;;;;4836685;29;20054;-66
2023/03/06 10:36:28;;;;;;;6.50;2.38;;;;;;;;;;4835888;29;20518;-66
2023/03/06 10:38:59;;;;;;;6.05;1.95;;;;;;;;;;4835990;29;20073;-66
2023/03/06 10:41:37;;;;;;;5.60;2.28;;;;;;;;;;4835898;29;20645;-66
2023/03/06 10:44:08;;;;;;;3.83;1.80;;;;;;;;;;4818102;29;20059;-66
2023/03/06 10:46:43;;;;;;;6.40;1.92;;;;;;;;;;4899482;29;20064;-66
2023/03/06 10:49:29;;;;;;;5.60;2.00;;;;;;;;;;4914504;29;20599;-66
2023/03/06 10:52:19;;;;;;;7.88;2.35;;;;;;;;;;4915165;29;20059;-66
2023/03/06 10:54:49;;;;;;;7.60;2.05;;;;;;;;;;4883758;29;20708;-66
2023/03/06 10:57:25;;;;;;;3.75;2.03;;;;;;;;;;4914159;29;20064;-66
2023/03/06 11:00:22;;;;;;;7.45;2.22;;;;;;;;;;4910927;29;20060;-67
2023/03/06 11:03:06;;;;;;;6.47;2.20;;;;;;;;;;4911103;29;20533;-67
2023/03/06 11:05:36;;;;;;;5.38;2.72;;;;;;;;;;4923353;28;20062;-67
2023/03/06 11:08:21;;;;;;;4.80;2.47;;;;;;;;;;4955778;28;20049;-66
2023/03/06 11:11:20;;;;;;;5.53;2.67;;;;;;;;;;5042855;28;20121;-66
2023/03/06 11:14:15;;;;;;;7.18;2.10;;;;;;;;;;5013634;28;20117;-66
2023/03/06 11:16:52;;;;;;;5.95;2.03;;;;;;;;;;5013546;28;20050;-66
2023/03/06 11:19:28;;;;;;;5.15;1.42;;;;;;;;;;4993903;28;20053;-67
2023/03/06 11:22:16;;;;;;;5.55;1.73;;;;;;;;;;5009465;28;20045;-66
2023/03/06 11:24:52;;;;;;;4.78;1.42;;;;;;;;;;5009576;28;20045;-66
2023/03/06 11:27:33;;;;;;;6.28;2.33;;;;;;;;;;5009477;28;20053;-67
2023/03/06 11:30:23;;;;;;;8.05;2.42;;;;;;;;;;5006933;28;20061;-66
2023/03/06 11:33:00;;;;;;;6.53;2.03;;;;;;;;;;5013319;28;20038;-66
2023/03/06 11:35:38;;;;;;;5.70;1.55;;;;;;;;;;4994170;28;20057;-66
2023/03/06 11:38:16;;;;;;;5.32;1.80;;;;;;;;;;5010334;28;20058;-66
2023/03/06 11:40:52;;;;;;;2.95;1.52;;;;;;;;;;5009284;28;20057;-65
2023/03/06 11:43:26;;;;;;;5.60;1.90;;;;;;;;;;5008912;28;20084;-67
2023/03/06 11:46:02;;;;;;;8.85;1.85;;;;;;;;;;5025935;28;20196;-67
2023/03/06 11:48:42;;;;;;;3.33;1.60;;;;;;;;;;5025815;28;20503;-67
2023/03/06 11:51:21;;;;;;;3.03;1.45;;;;;;;;;;5025973;28;20505;-66
2023/03/06 11:53:52;;;;;;;5.63;1.48;;;;;;;;;;5028541;28;20533;-67
2023/03/06 11:56:33;;;;;;;4.32;1.50;;;;;;;;;;5013473;28;20097;-67
2023/03/06 11:59:14;;;;;;;4.47;1.60;;;;;;;;;;5029925;28;20061;-68
2023/03/06 12:01:54;;;;;;;5.95;1.40;;;;;;;;;;5029913;28;20140;-67
2023/03/06 12:04:26;;;;;;;3.70;1.38;;;;;;;;;;5026231;28;20053;-67
2023/03/06 12:07:17;;;;;;;4.80;1.58;;;;;;;;;;5025480;28;20436;-67
2023/03/06 12:09:47;;;;;;;3.80;1.42;;;;;;;;;;5025257;28;20072;-67
2023/03/06 12:12:19;;;;;;;5.47;1.67;;;;;;;;;;5025985;28;20065;-67
2023/03/06 12:15:01;;;;;;;5.95;1.90;;;;;;;;;;4994549;28;20049;-67
2023/03/06 12:17:48;;;;;;;9.43;1.80;;;;;;;;;;5032195;28;20049;-66
2023/03/06 12:20:41;;;;;;;3.85;1.75;;;;;;;;;;5032197;28;20382;-65
2023/03/06 12:23:47;;;;;;;31.42;14.55;;;;;;;;;;5032080;28;20398;-66
2023/03/06 12:26:17;;;;;;;12.02;7.35;;;;;;;;;;5009407;28;20058;-67
2023/03/06 12:29:05;;;;;;;4.43;2.53;;;;;;;;;;5027982;28;20052;-67
2023/03/06 12:31:57;;;;;;;6.85;4.80;;;;;;;;;;5028289;28;20845;-67
2023/03/06 12:34:33;;;;;;;4.50;1.83;;;;;;;;;;5028275;28;20049;-67
2023/03/06 12:37:08;;;;;;;6.95;2.97;;;;;;;;;;5028620;28;20060;-66
2023/03/06 12:39:49;;;;;;;26.83;12.57;;;;;;;;;;5031702;28;20061;-66
2023/03/06 12:42:28;;;;;;;2.85;1.48;;;;;;;;;;5031794;28;20049;-66
2023/03/06 12:45:21;;;;;;;88.20;29.95;;;;;;;;;;5031658;28;20397;-66
2023/03/06 12:47:57;;;;;;;8.00;3.10;;;;;;;;;;5041922;28;20061;-66
2023/03/06 12:50:33;;;;;;;8.00;2.90;;;;;;;;;;5026893;28;20049;-66
2023/03/06 12:53:06;;;;;;;6.63;3.45;;;;;;;;;;5025037;28;20065;-67
2023/03/06 12:55:44;;;;;;;8.90;3.53;;;;;;;;;;5025151;28;20084;-67
2023/03/06 12:58:34;;;;;;;16.15;6.75;;;;;;;;;;5028821;28;20037;-66
2023/03/06 13:01:32;;;;;;;4.20;2.00;;;;;;;;;;5011654;28;20057;-66
2023/03/06 13:04:30;;;;;;;5.72;2.92;;;;;;;;;;5044310;28;20532;-67
2023/03/06 13:07:00;;;;;;;5.05;2.13;;;;;;;;;;5031114;28;20041;-67
2023/03/06 13:09:54;;;;;;;5.22;2.15;;;;;;;;;;5027975;28;20053;-67
2023/03/06 13:12:55;;;;;;;6.18;1.63;;;;;;;;;;5027233;28;20053;-67
2023/03/06 13:15:39;;;;;;;4.55;2.30;;;;;;;;;;5027387;28;20049;-67
2023/03/06 13:18:32;;;;;;;6.70;1.92;;;;;;;;;;5029974;28;20044;-68
2023/03/06 13:21:03;;;;;;;6.03;1.90;;;;;;;;;;5001909;28;20814;-67
2023/03/06 13:23:36;;;;;;;6.22;2.78;;;;;;;;;;4989729;28;20058;-67
2023/03/06 13:26:30;;;;;;;3.53;1.90;;;;;;;;;;4973780;28;20073;-67
2023/03/06 13:29:00;;;;;;;4.57;2.65;;;;;;;;;;4988327;28;20050;-67
2023/03/06 13:31:35;;;;;;;4.72;2.00;;;;;;;;;;4984533;28;20073;-68
2023/03/06 13:34:25;;;;;;;8.60;5.63;;;;;;;;;;4977909;28;20046;-67
2023/03/06 13:37:26;;;;;;;5.03;1.92;;;;;;;;;;4965130;28;20053;-67
2023/03/06 13:40:00;;;;;;;5.25;1.90;;;;;;;;;;4981049;28;20049;-65
2023/03/06 13:43:00;;;;;;;4.63;1.90;;;;;;;;;;4981135;28;20049;-66
2023/03/06 13:45:41;;;;;;;7.60;2.53;;;;;;;;;;4950475;28;20052;-66
2023/03/06 13:48:34;;;;;;;5.25;1.95;;;;;;;;;;4936011;29;20530;-66
2023/03/06 13:51:24;;;;;;;6.10;1.85;;;;;;;;;;4915310;29;20063;-65
2023/03/06 13:53:59;;;;;;;6.30;2.90;;;;;;;;;;4927038;29;20134;-66
2023/03/06 13:56:46;;;;;;;5.95;2.85;;;;;;;;;;4926783;29;20071;-65
2023/03/06 13:59:18;;;;;;;5.38;1.75;;;;;;;;;;4926954;28;20083;-65
2023/03/06 14:02:10;;;;;;;3.40;1.70;;;;;;;;;;4907304;28;20066;-65
2023/03/06 14:05:00;;;;;;;3.03;2.10;;;;;;;;;;4935169;28;20058;-65
2023/03/06 14:07:33;;;;;;;4.40;1.90;;;;;;;;;;4953183;28;20159;-65
2023/03/06 14:10:20;;;;;;;5.65;1.83;;;;;;;;;;4968909;28;20066;-66
2023/03/06 14:12:50;;;;;;;4.63;1.65;;;;;;;;;;4967710;28;20058;-67
2023/03/06 14:15:21;;;;;;;5.53;1.92;;;;;;;;;;4965013;28;20647;-67
2023/03/06 14:18:06;;;;;;;3.80;1.40;;;;;;;;;;4932675;28;20736;-67
2023/03/06 14:20:38;;;;;;;;;;;;;;;;;;4965301;28;20050;-66
2023/03/06 14:23:20;;;;;;;3.30;1.42;;;;;;;;;;4994743;28;19932;-68
2023/03/06 14:26:14;;;;;;;5.50;1.58;;;;;;;;;;5006030;28;20545;-69
2023/03/06 14:28:59;;;;;;;3.00;1.42;;;;;;;;;;5008052;28;20528;-66
2023/03/06 14:31:36;;;;;;;5.32;1.60;;;;;;;;;;5007703;28;20054;-67
2023/03/06 14:34:08;;;;;;;;;;;;;;;;;;5008507;28;20477;-68
2023/03/06 14:36:48;;;;;;;6.20;1.35;;;;;;;;;;5010770;28;19932;-67
2023/03/06 14:39:42;;;;;;;2.70;1.20;;;;;;;;;;5023567;28;20714;-68
2023/03/06 14:42:25;;;;;;;5.35;1.30;;;;;;;;;;5025808;28;20045;-69
2023/03/06 14:45:06;;;;;;;6.55;1.30;;;;;;;;;;5026256;28;20053;-68
2023/03/06 14:47:36;;;;;;;4.93;1.25;;;;;;;;;;5028691;28;20429;-68
2023/03/06 14:50:25;;;;;;;5.63;1.27;;;;;;;;;;5029590;28;20045;-68
2023/03/06 14:53:14;;;;;;;3.90;1.00;;;;;;;;;;5029604;28;20050;-69
2023/03/06 14:55:56;;;;;;;2.30;1.25;;;;;;;;;;5029870;28;20056;-67
2023/03/06 14:58:37;;;;;;;2.70;1.15;;;;;;;;;;5025251;28;20056;-68
2023/03/06 15:01:12;;;;;;;2.47;1.00;;;;;;;;;;5026316;28;20397;-67
2023/03/06 15:03:47;;;;;;;4.40;2.40;;;;;;;;;;5025738;28;20049;-67
2023/03/06 15:06:50;;;;;;;4.45;1.33;;;;;;;;;;5022199;28;20057;-69
2023/03/06 15:09:24;;;;;;;4.45;1.27;;;;;;;;;;5002824;28;20058;-66
2023/03/06 15:11:59;;;;;;;2.92;1.15;;;;;;;;;;5007067;28;20122;-69
2023/03/06 15:14:34;;;;;;;2.92;1.20;;;;;;;;;;4959046;28;20068;-68
2023/03/06 15:17:22;;;;;;;3.53;1.23;;;;;;;;;;5007059;28;20049;-66
2023/03/06 15:19:57;;;;;;;5.75;1.85;;;;;;;;;;4971024;28;20210;-66
2023/03/06 15:22:38;;;;;;;3.88;1.00;;;;;;;;;;4954681;28;20435;-68
2023/03/06 15:25:29;;;;;;;4.32;1.25;;;;;;;;;;4973563;28;20069;-68
2023/03/06 15:28:01;;;;;;;2.33;1.23;;;;;;;;;;5004896;28;20057;-67
2023/03/06 15:30:34;;;;;;;4.07;1.15;;;;;;;;;;5007828;28;20065;-68
2023/03/06 15:33:22;;;;;;;3.63;1.20;;;;;;;;;;4961922;28;20057;-67
2023/03/06 15:35:56;;;;;;;3.05;1.25;;;;;;;;;;5010218;28;20066;-67